Time;durP1;ratioP1;P1;durP2;ratioP2;P2;SDS_P1;SDS_P2;PMS_P1;PMS_P2;Temp;Humidity;BMP_temperature;BMP_pressure;BME280_temperature;BME280_humidity;BME280_pressure;Samples;Min_cycle;Max_cycle;Signal;HPM_P1;HPM_P2
2022/08/31 00:06:08;;;;;;;;;;;;;;;16.97;47.31;100571.91;5049857;28;1068;-58
2022/08/31 00:08:34;;;;;;;;;;;;;;;17.07;46.82;100580.09;5066182;28;1119;-58
2022/08/31 00:10:59;;;;;;;;;;;;;;;17.83;48.13;100577.16;5071767;28;1056;-58
2022/08/31 00:13:25;;;;;;;;;;;;;;;17.35;48.30;100587.91;5067805;28;1965;-58
2022/08/31 00:15:50;;;;;;;;;;;;;;;17.31;47.69;100586.88;5069502;28;1087;-58
2022/08/31 00:18:17;;;;;;;;;;;;;;;17.37;47.03;100583.78;5067316;28;1136;-58
2022/08/31 00:20:42;;;;;;;;;;;;;;;17.24;47.00;100587.19;5073289;28;1012;-58
2022/08/31 00:23:09;;;;;;;;;;;;;;;17.22;46.78;100592.13;5074833;28;1142;-59
2022/08/31 00:25:34;;;;;;;;;;;;;;;17.17;46.49;100586.66;5074312;28;1210;-60
2022/08/31 00:28:00;;;;;;;;;;;;;;;17.13;46.55;100588.34;5064559;28;974;-59
2022/08/31 00:30:27;;;;;;;;;;;;;;;17.15;46.35;100594.34;5063638;28;966;-59
2022/08/31 00:32:53;;;;;;;;;;;;;;;17.13;46.31;100591.09;5068567;28;1087;-58
2022/08/31 00:35:19;;;;;;;;;;;;;;;17.22;46.17;100581.13;5068366;28;1975;-58
2022/08/31 00:37:44;;;;;;;;;;;;;;;17.13;46.20;100594.63;5069297;28;989;-60
2022/08/31 00:40:10;;;;;;;;;;;;;;;17.03;46.63;100594.69;5044320;28;1135;-60
2022/08/31 00:42:36;;;;;;;;;;;;;;;17.10;46.04;100586.97;5069322;28;1486;-59
2022/08/31 00:45:02;;;;;;;;;;;;;;;17.14;46.19;100588.03;5070342;28;1043;-60
2022/08/31 00:47:27;;;;;;;;;;;;;;;17.13;46.19;100591.09;5053313;28;985;-60
2022/08/31 00:49:52;;;;;;;;;;;;;;;17.09;46.22;100579.81;5053492;28;1266;-59
2022/08/31 00:52:29;;;;;;;;;;;;;;;17.00;46.39;100585.09;5071098;28;1083;-60
2022/08/31 00:54:59;;;;;;;;;;;;;;;17.12;46.22;100589.44;5055766;28;1913;-60
2022/08/31 00:57:26;;;;;;;;;;;;;;;17.14;46.19;100587.22;5059935;28;1005;-59
2022/08/31 00:59:51;;;;;;;;;;;;;;;17.09;45.98;100591.63;5044006;28;1332;-60
2022/08/31 01:02:16;;;;;;;;;;;;;;;17.07;46.00;100593.03;5035744;28;1415;-60
2022/08/31 01:04:42;;;;;;;;;;;;;;;17.13;46.03;100591.91;5054886;28;1497;-60
2022/08/31 01:07:08;;;;;;;;;;;;;;;17.14;45.70;100592.69;5068912;28;985;-59
2022/08/31 01:09:36;;;;;;;;;;;;;;;17.36;46.30;100600.56;5056249;28;1009;-59
2022/08/31 01:12:02;;;;;;;;;;;;;;;16.36;51.37;100601.13;5069188;28;1008;-59
2022/08/31 01:14:27;;;;;;;;;;;;;;;15.71;52.39;100596.19;5075026;28;1909;-59
2022/08/31 01:16:53;;;;;;;;;;;;;;;17.47;50.22;100596.66;5068605;28;1128;-59
2022/08/31 01:19:37;;;;;;;;;;;;;;;17.44;49.84;100587.03;5076175;28;997;-59
2022/08/31 01:22:05;;;;;;;;;;;;;;;17.24;48.50;100577.00;5056237;28;1242;-59
2022/08/31 01:24:31;;;;;;;;;;;;;;;17.14;48.28;100573.47;5077352;28;1012;-58
2022/08/31 01:27:01;;;;;;;;;;;;;;;17.09;47.40;100588.88;5047546;28;1198;-59
2022/08/31 01:29:27;;;;;;;;;;;;;;;17.17;47.16;100586.66;5054539;28;1095;-59
2022/08/31 01:31:52;;;;;;;;;;;;;;;17.15;46.56;100575.94;5070586;28;997;-59
2022/08/31 01:34:18;;;;;;;;;;;;;;;17.14;46.51;100581.72;5050621;28;1959;-58
2022/08/31 01:36:43;;;;;;;;;;;;;;;17.16;46.29;100576.78;5073638;28;989;-59
2022/08/31 01:39:09;;;;;;;;;;;;;;;17.13;46.09;100578.16;5073437;28;1099;-58
2022/08/31 01:41:34;;;;;;;;;;;;;;;17.04;46.49;100577.09;5070485;28;950;-58
2022/08/31 01:44:00;;;;;;;;;;;;;;;17.11;46.09;100583.13;5075450;28;1143;-59
2022/08/31 01:46:27;;;;;;;;;;;;;;;17.85;46.85;100582.38;5054970;28;1199;-59
2022/08/31 01:48:52;;;;;;;;;;;;;;;17.55;48.25;100587.00;5055680;28;1084;-58
2022/08/31 01:51:19;;;;;;;;;;;;;;;17.45;47.81;100579.63;5052389;28;1290;-59
2022/08/31 01:53:44;;;;;;;;;;;;;;;17.40;46.93;100583.25;5071593;28;1909;-59
2022/08/31 01:56:14;;;;;;;;;;;;;;;17.32;46.92;100583.84;5055690;28;1158;-60
2022/08/31 01:58:39;;;;;;;;;;;;;;;17.32;46.33;100583.84;5038276;28;1128;-60
2022/08/31 02:01:27;;;;;;;;;;;;;;;17.24;46.07;100574.25;5071352;28;1185;-60
2022/08/31 02:03:52;;;;;;;;;;;;;;;17.18;46.20;100577.31;5037781;28;1017;-60
2022/08/31 02:06:18;;;;;;;;;;;;;;;17.28;45.82;100572.56;5073253;28;1156;-60
2022/08/31 02:08:45;;;;;;;;;;;;;;;17.20;46.24;100580.59;5054253;28;1225;-60
2022/08/31 02:11:10;;;;;;;;;;;;;;;17.19;45.97;100568.78;5054087;28;1022;-61
2022/08/31 02:13:36;;;;;;;;;;;;;;;17.22;45.75;100575.63;5049977;28;1971;-60
2022/08/31 02:16:01;;;;;;;;;;;;;;;17.13;45.78;100580.09;5056430;28;1104;-61
2022/08/31 02:18:27;;;;;;;;;;;;;;;17.22;45.54;100570.97;5050889;28;1175;-60
2022/08/31 02:20:52;;;;;;;;;;;;;;;17.19;45.79;100565.22;5064932;28;1005;-60
2022/08/31 02:23:18;;;;;;;;;;;;;;;17.22;45.55;100568.22;5056622;28;1081;-60
2022/08/31 02:25:43;;;;;;;;;;;;;;;17.20;45.73;100572.34;5076541;28;997;-61
2022/08/31 02:28:12;;;;;;;;;;;;;;;18.09;46.43;100579.72;5058621;28;1115;-61
2022/08/31 02:30:38;;;;;;;;;;;;;;;17.47;47.47;100573.84;5041942;28;1357;-60
2022/08/31 02:33:04;;;;;;;;;;;;;;;17.40;46.83;100574.16;5039771;28;1980;-61
2022/08/31 02:35:29;;;;;;;;;;;;;;;17.28;46.75;100580.00;5065970;28;1017;-61
2022/08/31 02:37:55;;;;;;;;;;;;;;;17.32;46.56;100567.34;5070443;28;1008;-62
2022/08/31 02:40:20;;;;;;;;;;;;;;;17.26;46.05;100573.97;5044845;28;1104;-61
2022/08/31 02:42:46;;;;;;;;;;;;;;;17.26;46.01;100574.81;5061669;28;1077;-61
2022/08/31 02:45:12;;;;;;;;;;;;;;;17.22;45.93;100564.63;5053827;28;1115;-62
2022/08/31 02:47:37;;;;;;;;;;;;;;;17.22;45.87;100561.88;5052792;28;1496;-62
2022/08/31 02:50:26;;;;;;;;;;;;;;;17.34;45.44;100575.31;5054479;28;1158;-61
2022/08/31 02:52:54;;;;;;;;;;;;;;;17.24;45.65;100567.94;5067862;28;1087;-61
2022/08/31 02:55:20;;;;;;;;;;;;;;;17.26;45.23;100571.22;5073718;28;1914;-61
2022/08/31 02:57:46;;;;;;;;;;;;;;;17.18;45.35;100566.31;5055672;28;1284;-62
2022/08/31 03:00:12;;;;;;;;;;;;;;;17.09;45.63;100571.56;5056518;28;1300;-61
2022/08/31 03:02:39;;;;;;;;;;;;;;;17.99;46.18;100564.13;5058528;28;1146;-61
2022/08/31 03:05:09;;;;;;;;;;;;;;;17.39;47.25;100556.84;5053578;28;1202;-61
2022/08/31 03:07:36;;;;;;;;;;;;;;;17.35;46.79;100566.78;5040435;28;1259;-61
2022/08/31 03:10:02;;;;;;;;;;;;;;;17.32;46.31;100559.09;5071572;28;986;-61
2022/08/31 03:12:28;;;;;;;;;;;;;;;17.32;46.11;100559.09;5069298;28;1025;-60
2022/08/31 03:14:54;;;;;;;;;;;;;;;17.22;45.88;100561.88;5054208;28;1902;-55
2022/08/31 03:17:19;;;;;;;;;;;;;;;17.17;45.84;100565.50;5053318;28;1214;-57
2022/08/31 03:19:46;;;;;;;;;;;;;;;17.19;45.90;100565.22;5053422;28;1245;-56
2022/08/31 03:22:13;;;;;;;;;;;;;;;17.21;45.68;100565.75;5052728;28;1386;-55
2022/08/31 03:24:39;;;;;;;;;;;;;;;17.22;45.54;100562.72;5073965;28;969;-57
2022/08/31 03:27:04;;;;;;;;;;;;;;;17.21;45.32;100572.06;5072364;28;1128;-59
2022/08/31 03:29:30;;;;;;;;;;;;;;;17.14;45.65;100584.47;5049073;28;1179;-56
2022/08/31 03:32:14;;;;;;;;;;;;;;;17.17;45.30;100583.91;5056543;28;1214;-56
2022/08/31 03:34:42;;;;;;;;;;;;;;;17.97;47.07;100593.88;5058458;28;1954;-57
2022/08/31 03:37:08;;;;;;;;;;;;;;;17.52;47.31;100576.56;5066129;28;957;-56
2022/08/31 03:39:33;;;;;;;;;;;;;;;17.42;46.86;100577.47;5051330;28;1294;-56
2022/08/31 03:41:59;;;;;;;;;;;;;;;17.39;46.31;100569.75;5045981;28;1130;-57
2022/08/31 03:44:24;;;;;;;;;;;;;;;17.30;46.30;100577.78;5053378;28;1079;-55
2022/08/31 03:46:54;;;;;;;;;;;;;;;17.28;45.91;100569.03;5049805;28;1654;-53
2022/08/31 03:49:20;;;;;;;;;;;;;;;17.35;45.68;100571.44;5051968;28;1364;-52
2022/08/31 03:52:02;;;;;;;;;;;;;;;17.22;45.67;100572.88;5054508;28;1279;-53
2022/08/31 03:54:30;;;;;;;;;;;;;;;17.52;48.56;100576.56;5040446;28;1984;-49
2022/08/31 03:56:56;;;;;;;;;;;;;;;17.55;48.84;100570.50;5056785;28;1522;-55
2022/08/31 03:59:22;;;;;;;;;;;;;;;17.39;47.84;100570.59;5052507;28;1315;-56
2022/08/31 04:02:26;;;;;;;;;;;;;;;17.27;47.37;100567.38;5013167;28;1466;-55
2022/08/31 04:05:12;;;;;;;;;;;;;;;17.38;46.50;100566.19;5013427;28;1153;-55
2022/08/31 04:07:57;;;;;;;;;;;;;;;17.30;46.36;100575.03;5059051;28;1193;-52
2022/08/31 04:10:41;;;;;;;;;;;;;;;17.24;46.44;100570.69;5065603;28;973;-53
2022/08/31 04:13:25;;;;;;;;;;;;;;;17.29;46.03;100562.41;5075109;28;1905;-56
2022/08/31 04:16:10;;;;;;;;;;;;;;;17.22;45.96;100572.88;5075978;28;993;-57
2022/08/31 04:18:54;;;;;;;;;;;;;;;17.26;45.70;100565.72;5066781;28;1556;-57
2022/08/31 04:21:21;;;;;;;;;;;;;;;17.57;48.08;100557.28;5057636;28;2192;-57
2022/08/31 04:23:48;;;;;;;;;;;;;;;15.21;53.55;100587.56;5057722;28;1489;-55
2022/08/31 04:26:18;;;;;;;;;;;;;;;16.67;48.62;100589.28;5057319;28;1094;-55
2022/08/31 04:28:44;;;;;;;;;;;;;;;16.83;47.33;100581.81;5071763;28;1163;-56
2022/08/31 04:31:09;;;;;;;;;;;;;;;16.94;47.09;100594.44;5071312;28;1013;-55
2022/08/31 04:33:38;;;;;;;;;;;;;;;16.88;46.62;100590.88;5057366;28;1985;-57
2022/08/31 04:36:04;;;;;;;;;;;;;;;17.07;46.19;100590.28;5049767;28;1115;-55
2022/08/31 04:38:30;;;;;;;;;;;;;;;17.74;47.71;100600.88;5070060;28;1109;-62
2022/08/31 04:40:55;;;;;;;;;;;;;;;17.34;47.97;100581.63;5041861;28;1503;-59
2022/08/31 04:43:21;;;;;;;;;;;;;;;17.24;47.55;100584.44;5043371;28;1241;-61
2022/08/31 04:45:46;;;;;;;;;;;;;;;17.15;47.17;100577.88;5057565;28;1289;-58
2022/08/31 04:48:13;;;;;;;;;;;;;;;17.17;46.72;100565.50;5039753;28;1271;-58
2022/08/31 04:50:39;;;;;;;;;;;;;;;17.17;46.68;100562.75;5041284;28;1281;-58
2022/08/31 04:53:06;;;;;;;;;;;;;;;17.15;46.22;100573.19;5051676;28;1238;-58
2022/08/31 04:55:32;;;;;;;;;;;;;;;17.15;46.11;100558.63;5043717;28;1914;-57
2022/08/31 04:57:57;;;;;;;;;;;;;;;17.05;46.12;100557.56;5053880;28;1084;-58
2022/08/31 05:00:23;;;;;;;;;;;;;;;17.08;46.01;100562.53;5053992;28;1378;-58
2022/08/31 05:03:07;;;;;;;;;;;;;;;17.07;45.77;100549.88;5055499;28;1087;-59
2022/08/31 05:05:36;;;;;;;;;;;;;;;17.05;45.73;100554.81;5052396;28;1466;-60
2022/08/31 05:08:02;;;;;;;;;;;;;;;17.12;45.74;100559.22;5037494;28;1222;-60
2022/08/31 05:10:27;;;;;;;;;;;;;;;17.05;45.86;100568.56;5039563;28;1586;-60
2022/08/31 05:12:53;;;;;;;;;;;;;;;17.62;47.30;100571.00;5041166;28;1413;-58
2022/08/31 05:15:20;;;;;;;;;;;;;;;17.27;47.22;100576.44;5038974;28;1910;-60
2022/08/31 05:17:46;;;;;;;;;;;;;;;17.31;46.70;100576.69;5045423;28;1005;-61
2022/08/31 05:20:12;;;;;;;;;;;;;;;17.29;46.41;100573.38;5054310;28;1272;-60
2022/08/31 05:22:38;;;;;;;;;;;;;;;17.17;46.28;100575.69;5042947;28;1237;-59
2022/08/31 05:25:05;;;;;;;;;;;;;;;17.13;46.27;100574.59;5042892;28;1150;-60
2022/08/31 05:27:31;;;;;;;;;;;;;;;17.18;45.99;100572.66;5050926;28;1040;-61
2022/08/31 05:29:57;;;;;;;;;;;;;;;17.17;45.98;100581.19;5054972;28;1214;-58
2022/08/31 05:32:40;;;;;;;;;;;;;;;17.17;45.54;100572.94;5049769;28;1204;-59
2022/08/31 05:35:08;;;;;;;;;;;;;;;17.21;46.23;100554.78;5043806;28;1973;-61
2022/08/31 05:37:34;;;;;;;;;;;;;;;17.96;47.49;100564.72;5055136;28;1270;-59
2022/08/31 05:39:59;;;;;;;;;;;;;;;17.43;48.02;100557.94;5051345;28;1135;-58
2022/08/31 05:42:25;;;;;;;;;;;;;;;17.49;47.09;100560.63;5056790;28;1296;-59
2022/08/31 05:44:50;;;;;;;;;;;;;;;18.59;46.01;100560.25;5041879;28;1275;-59
2022/08/31 05:47:16;;;;;;;;;;;;;;;18.08;47.68;100561.59;5047164;28;1036;-61
2022/08/31 05:49:42;;;;;;;;;;;;;;;17.83;48.73;100560.66;5050294;28;1333;-64
2022/08/31 05:52:12;;;;;;;;;;;;;;;17.71;49.31;100560.22;5048690;28;1387;-64
2022/08/31 05:54:39;;;;;;;;;;;;;;;17.63;49.72;100558.91;5049288;28;1905;-63
2022/08/31 05:57:04;;;;;;;;;;;;;;;17.55;50.47;100567.75;5058962;28;1166;-65
2022/08/31 05:59:30;;;;;;;;;;;;;;;17.50;50.63;100573.28;5055637;28;1179;-65
2022/08/31 06:01:56;;;;;;;;;;;;;;;17.45;51.85;100571.41;5056478;28;1235;-65
2022/08/31 06:04:24;;;;;;;;;;;;;;;17.41;52.10;100571.13;5054381;28;1104;-64
2022/08/31 06:06:51;;;;;;;;;;;;;;;17.39;52.38;100572.50;5049371;28;1273;-61
2022/08/31 06:09:19;;;;;;;;;;;;;;;17.34;52.51;100569.81;5057318;28;1315;-59
2022/08/31 06:11:45;;;;;;;;;;;;;;;17.52;53.85;100580.13;5059292;28;1280;-53
2022/08/31 06:14:13;;;;;;;;;;;;;;;17.39;54.56;100578.00;5060377;28;1910;-61
2022/08/31 06:16:41;;;;;;;;;;;;;;;17.30;54.40;100569.53;5054056;28;1210;-58
2022/08/31 06:19:07;;;;;;;;;;;;;;;17.28;54.44;100564.34;5052039;28;871;-59
2022/08/31 06:21:36;;;;;;;;;;;;;;;17.27;54.50;100570.13;5059599;28;1307;-59
2022/08/31 06:24:02;;;;;;;;;;;;;;;17.19;54.76;100577.00;5072476;28;953;-58
2022/08/31 06:26:30;;;;;;;;;;;;;;;17.35;54.73;100576.94;5052910;28;1423;-56
2022/08/31 06:28:56;;;;;;;;;;;;;;;17.25;56.23;100575.91;5057894;28;1237;-62
2022/08/31 06:31:28;;;;;;;;;;;;;;;17.29;57.06;100578.88;5035079;28;1178;-61
2022/08/31 06:33:54;;;;;;;;;;;;;;;17.32;57.39;100578.34;5044390;28;1918;-56
2022/08/31 06:36:47;;;;;;;;;;;;;;;17.35;57.05;100579.69;5067619;28;1016;-62
2022/08/31 06:39:35;;;;;;;;;;;;;;;17.27;56.82;100575.63;5065418;28;1305;-62
2022/08/31 06:42:14;;;;;;;;;;;;;;;17.22;56.76;100567.38;5042206;28;1349;-56
2022/08/31 06:44:58;;;;;;;;;;;;;;;17.17;56.58;100559.19;5060904;28;855;-56
2022/08/31 06:47:36;;;;;;;;;;;;;;;17.13;56.25;100558.94;5057723;28;1122;-56
2022/08/31 06:50:04;;;;;;;;;;;;;;;17.13;56.19;100549.88;5047118;28;1325;-56
2022/08/31 06:52:30;;;;;;;;;;;;;;;17.08;56.21;100565.28;5053410;28;1279;-56
2022/08/31 06:55:09;;;;;;;;;;;;;;;17.03;56.10;100564.47;5048054;28;1910;-52
2022/08/31 06:57:53;;;;;;;;;;;;;;;17.07;55.81;100571.88;5045643;28;1040;-56
2022/08/31 07:00:48;;;;;;;;;;;;;;;17.00;55.91;100571.34;4986053;28;1366;-56
2022/08/31 07:03:33;;;;;;;;;;;;;;;16.99;55.95;100582.63;5039083;28;1191;-56
2022/08/31 07:06:10;;;;;;;;;;;;;;;16.99;56.04;100586.19;5050527;28;1241;-59
2022/08/31 07:08:37;;;;;;;;;;;;;;;16.98;55.85;100590.03;5043203;28;1331;-59
2022/08/31 07:11:03;;;;;;;;;;;;;;;16.92;56.10;100591.16;5059621;28;1432;-59
2022/08/31 07:13:29;;;;;;;;;;;;;;;16.92;56.10;100588.41;5035465;28;1933;-57
2022/08/31 07:16:04;;;;;;;;;;;;;;;16.89;57.26;100591.72;5048173;28;1187;-56
2022/08/31 07:18:30;;;;;;;;;;;;;;;16.98;58.15;100590.03;5060539;28;1309;-57
2022/08/31 07:21:04;;;;;;;;;;;;;;;17.03;58.52;100592.75;5055175;28;1309;-58
2022/08/31 07:23:29;;;;;;;;;;;;;;;17.04;57.71;100585.31;5042945;28;1094;-57
2022/08/31 07:26:03;;;;;;;;;;;;;;;17.01;57.66;100581.25;5042156;28;1182;-57
2022/08/31 07:28:29;;;;;;;;;;;;;;;17.00;57.32;100576.84;5040817;28;1282;-58
2022/08/31 07:30:55;;;;;;;;;;;;;;;16.98;57.21;100583.72;5042135;28;1277;-59
2022/08/31 07:33:20;;;;;;;;;;;;;;;16.96;56.71;100584.00;5046760;28;1977;-58
2022/08/31 07:35:51;;;;;;;;;;;;;;;16.95;56.94;100584.28;5049406;28;1242;-58
2022/08/31 07:43:55;;;;;;;;;;;;;;;16.88;56.37;100574.41;5045649;28;1114;-59
2022/08/31 07:46:21;;;;;;;;;;;;;;;16.89;56.36;100576.06;5048434;28;1124;-57
2022/08/31 07:48:46;;;;;;;;;;;;;;;16.86;56.42;100587.56;5038941;28;1170;-60
2022/08/31 07:51:30;;;;;;;;;;;;;;;16.87;56.52;100591.13;5048792;28;1122;-56
2022/08/31 07:54:17;;;;;;;;;;;;;;;16.81;56.33;100584.84;5041582;28;1992;-56
2022/08/31 07:57:03;;;;;;;;;;;;;;;16.78;56.45;100579.91;5043087;28;1115;-57
2022/08/31 07:59:30;;;;;;;;;;;;;;;16.79;56.26;100567.00;5053765;28;1040;-56
2022/08/31 08:02:00;;;;;;;;;;;;;;;16.79;56.49;100559.59;5041448;28;1397;-59
2022/08/31 08:04:26;;;;;;;;;;;;;;;16.81;56.20;100551.06;5049134;28;1228;-60
2022/08/31 08:07:04;;;;;;;;;;;;;;;16.83;55.97;100538.72;5039748;28;1002;-56
2022/08/31 08:09:54;;;;;;;;;;;;;;;16.81;56.06;100535.41;5017015;28;1289;-59
2022/08/31 08:12:47;;;;;;;;;;;;;;;16.81;56.30;100532.66;5050731;28;1266;-56
2022/08/31 08:15:22;;;;;;;;;;;;;;;16.77;56.06;100524.19;5038961;28;1926;-60
2022/08/31 08:18:12;;;;;;;;;;;;;;;16.76;56.20;100530.78;5042981;28;1249;-61
2022/08/31 08:20:45;;;;;;;;;;;;;;;16.76;56.11;100536.25;5044359;28;1146;-59
2022/08/31 08:23:12;;;;;;;;;;;;;;;16.75;56.31;100542.03;5046541;28;1279;-62
2022/08/31 08:25:59;;;;;;;;;;;;;;;16.75;56.13;100547.53;5042104;28;1142;-59
2022/08/31 08:28:43;;;;;;;;;;;;;;;16.76;57.41;100543.69;5041169;28;1308;-65
2022/08/31 08:31:12;;;;;;;;;;;;;;;16.84;57.52;100550.50;5045298;28;1463;-56
2022/08/31 08:33:38;;;;;;;;;;;;;;;16.82;57.36;100552.72;5048090;28;1977;-60
2022/08/31 08:36:06;;;;;;;;;;;;;;;16.82;57.18;100564.53;5049634;28;1322;-60
2022/08/31 08:38:33;;;;;;;;;;;;;;;16.79;56.82;100559.59;5043934;28;1251;-61
2022/08/31 08:41:00;;;;;;;;;;;;;;;16.82;56.99;100553.53;5042042;28;1385;-60
2022/08/31 08:43:29;;;;;;;;;;;;;;;16.86;57.22;100551.88;5029768;28;1148;-60
2022/08/31 08:45:55;;;;;;;;;;;;;;;16.81;57.55;100559.31;5042697;28;1237;-58
2022/08/31 08:48:26;;;;;;;;;;;;;;;16.87;57.66;100555.44;5047718;28;1331;-59
2022/08/31 08:50:52;;;;;;;;;;;;;;;16.94;58.10;100561.47;5040097;28;1199;-59
2022/08/31 08:53:26;;;;;;;;;;;;;;;16.90;57.72;100554.91;5045882;28;1930;-56
2022/08/31 08:56:03;;;;;;;;;;;;;;;16.88;57.62;100555.19;5041943;28;1365;-60
2022/08/31 08:58:29;;;;;;;;;;;;;;;16.88;57.40;100555.19;5049505;28;1223;-56
2022/08/31 09:00:56;;;;;;;;;;;;;;;16.89;57.17;100553.28;5042573;28;1236;-59
2022/08/31 09:03:32;;;;;;;;;;;;;;;16.84;56.97;100547.75;5044317;28;1296;-56
2022/08/31 09:06:20;;;;;;;;;;;;;;;16.83;57.00;100546.94;5040663;28;1215;-57
2022/08/31 09:08:50;;;;;;;;;;;;;;;16.80;56.94;100532.94;5038427;28;1367;-61
2022/08/31 09:11:37;;;;;;;;;;;;;;;16.85;56.73;100535.69;5051453;28;1260;-62
2022/08/31 09:14:09;;;;;;;;;;;;;;;16.83;56.70;100526.88;5041549;28;1910;-62
2022/08/31 09:16:53;;;;;;;;;;;;;;;16.83;56.77;100532.38;5045912;28;1409;-62
2022/08/31 09:19:20;;;;;;;;;;;;;;;16.77;56.66;100524.19;5049456;28;1246;-62
2022/08/31 09:21:46;;;;;;;;;;;;;;;16.81;56.68;100527.16;5044479;28;1201;-62
2022/08/31 09:24:13;;;;;;;;;;;;;;;16.80;56.72;100528.25;5044633;28;1090;-61
2022/08/31 09:26:56;;;;;;;;;;;;;;;16.83;56.78;100521.41;5050828;28;1656;-61
2022/08/31 09:29:32;;;;;;;;;;;;;;;16.84;56.60;100520.31;5045966;28;1551;-59
2022/08/31 09:32:00;;;;;;;;;;;;;;;16.85;56.46;100513.72;5046339;28;1167;-61
2022/08/31 09:34:30;;;;;;;;;;;;;;;16.84;56.70;100514.81;5045828;28;1906;-61
2022/08/31 09:37:10;;;;;;;;;;;;;;;16.83;56.70;100510.41;5050758;28;1178;-61
2022/08/31 09:39:36;;;;;;;;;;;;;;;16.85;56.55;100513.72;5048007;28;1064;-62
2022/08/31 09:42:02;;;;;;;;;;;;;;;16.81;56.59;100515.38;5053279;28;1257;-60
2022/08/31 09:44:30;;;;;;;;;;;;;;;16.81;56.55;100512.63;5050335;28;1171;-61
2022/08/31 09:46:59;;;;;;;;;;;;;;;16.81;56.86;100512.63;5053535;28;1071;-62
2022/08/31 09:49:45;;;;;;;;;;;;;;;16.79;57.00;100506.59;5040940;28;1105;-62
2022/08/31 09:52:17;;;;;;;;;;;;;;;16.82;56.89;100511.53;5057379;28;1092;-62
2022/08/31 09:57:43;;;;;;;;;;;;;;;16.82;56.86;100503.31;5064168;28;891;-61
2022/08/31 10:00:14;;;;;;;;;;;;;;;16.79;56.93;100496.44;5059258;28;1449;-59
2022/08/31 10:02:40;;;;;;;;;;;;;;;16.80;56.88;100478.03;5047768;28;982;-60
2022/08/31 10:05:06;;;;;;;;;;;;;;;16.79;56.77;100482.72;5069413;28;1151;-61
2022/08/31 10:07:46;;;;;;;;;;;;;;;16.85;56.46;100491.75;5056331;28;1029;-61
2022/08/31 10:10:13;;;;;;;;;;;;;;;16.82;56.84;100495.06;5052587;28;1152;-61
2022/08/31 10:12:39;;;;;;;;;;;;;;;16.77;56.68;100491.22;5043876;28;1083;-60
2022/08/31 10:15:16;;;;;;;;;;;;;;;16.80;57.14;100494.50;5068983;28;1975;-57
2022/08/31 10:17:45;;;;;;;;;;;;;;;16.82;56.82;100492.31;5073494;28;1052;-64
2022/08/31 10:20:15;;;;;;;;;;;;;;;16.77;57.15;100493.97;5044987;28;1068;-59
2022/08/31 10:22:42;;;;;;;;;;;;;;;16.81;56.98;100490.66;5052439;28;1009;-59
2022/08/31 10:25:20;;;;;;;;;;;;;;;16.80;56.86;100489.81;5052892;28;1065;-61
2022/08/31 10:27:50;;;;;;;;;;;;;;;16.77;57.05;100490.41;5072387;28;985;-62
2022/08/31 10:30:21;;;;;;;;;;;;;;;16.80;56.90;100483.53;5046057;28;1072;-61
2022/08/31 10:32:52;;;;;;;;;;;;;;;16.77;57.42;100473.91;5060589;28;1064;-58
2022/08/31 10:35:19;;;;;;;;;;;;;;;16.79;57.13;100465.41;5060137;28;1905;-58
2022/08/31 10:38:07;;;;;;;;;;;;;;;16.77;57.17;100463.78;5050202;28;934;-56
2022/08/31 10:40:41;;;;;;;;;;;;;;;16.79;57.23;100452.50;5057883;28;1203;-55
2022/08/31 10:43:17;;;;;;;;;;;;;;;16.81;57.29;100452.22;5059901;28;1021;-55
2022/08/31 10:45:44;;;;;;;;;;;;;;;16.74;57.48;100447.84;5066918;28;1398;-56
2022/08/31 10:48:11;;;;;;;;;;;;;;;16.76;57.52;100464.88;5073057;28;1167;-58
2022/08/31 10:50:39;;;;;;;;;;;;;;;16.81;57.01;100475.00;5075867;28;1020;-60
2022/08/31 10:53:09;;;;;;;;;;;;;;;16.76;57.41;100466.81;5066619;28;1442;-61
2022/08/31 10:55:45;;;;;;;;;;;;;;;16.77;57.37;100468.44;5047629;28;1906;-61
2022/08/31 10:58:16;;;;;;;;;;;;;;;16.78;57.16;100464.59;5065170;28;1037;-60
2022/08/31 11:01:00;;;;;;;;;;;;;;;16.80;57.23;100454.13;5071304;28;1076;-57
2022/08/31 11:03:34;;;;;;;;;;;;;;;16.81;57.07;100465.94;5066133;28;1253;-57
2022/08/31 11:06:03;;;;;;;;;;;;;;;16.77;57.47;100468.44;5066208;28;1025;-57
2022/08/31 11:08:35;;;;;;;;;;;;;;;16.76;57.36;100477.78;5069967;28;1159;-57
2022/08/31 11:11:00;;;;;;;;;;;;;;;16.76;57.10;100467.63;5066542;28;1068;-58
2022/08/31 11:13:41;;;;;;;;;;;;;;;16.79;57.06;100470.88;5044417;28;1905;-59
2022/08/31 11:16:25;;;;;;;;;;;;;;;16.72;57.18;100466.53;5074184;28;1159;-59
2022/08/31 11:18:54;;;;;;;;;;;;;;;16.74;57.24;100458.00;5066380;28;946;-59
2022/08/31 11:21:33;;;;;;;;;;;;;;;16.70;57.33;100463.22;5071216;28;974;-60
2022/08/31 11:24:11;;;;;;;;;;;;;;;16.75;57.50;100456.91;5062982;28;1519;-61
2022/08/31 11:26:55;;;;;;;;;;;;;;;16.67;57.41;100447.34;5070687;28;969;-60
2022/08/31 11:29:42;;;;;;;;;;;;;;;16.71;57.55;100442.91;5048597;28;989;-60
2022/08/31 11:32:10;;;;;;;;;;;;;;;16.75;57.59;100438.50;5048452;28;1175;-58
2022/08/31 11:34:46;;;;;;;;;;;;;;;16.77;57.63;100441.81;5066825;28;1981;-60
2022/08/31 11:37:12;;;;;;;;;;;;;;;16.77;57.43;100432.72;5045054;28;994;-59
2022/08/31 11:39:40;;;;;;;;;;;;;;;16.77;57.72;100430.81;5049747;28;1179;-59
2022/08/31 11:42:14;;;;;;;;;;;;;;;16.71;57.63;100420.16;5073331;28;1217;-59
2022/08/31 11:44:40;;;;;;;;;;;;;;;16.75;57.90;100422.03;5071111;28;1226;-59
2022/08/31 11:47:07;;;;;;;;;;;;;;;16.73;58.02;100418.78;5064862;28;1077;-59
2022/08/31 11:49:48;;;;;;;;;;;;;;;16.75;57.73;100422.03;5067242;28;1163;-60
2022/08/31 11:52:20;;;;;;;;;;;;;;;16.75;57.84;100416.53;5074854;28;1091;-58
2022/08/31 11:54:47;;;;;;;;;;;;;;;16.74;58.21;100419.56;5074123;28;1982;-61
2022/08/31 11:57:16;;;;;;;;;;;;;;;16.76;58.32;100418.19;5072381;28;1056;-62
2022/08/31 11:59:43;;;;;;;;;;;;;;;16.82;59.24;100416.25;5048070;28;1124;-57
2022/08/31 12:02:24;;;;;;;;;;;;;;;16.84;58.73;100413.19;5067276;28;942;-60
2022/08/31 12:05:01;;;;;;;;;;;;;;;16.86;58.44;100419.25;5067264;28;1143;-59
2022/08/31 12:07:33;;;;;;;;;;;;;;;16.87;58.24;100418.97;5065616;28;1060;-57
2022/08/31 12:10:13;;;;;;;;;;;;;;;16.93;58.11;100412.34;5064369;28;1167;-61
2022/08/31 12:12:41;;;;;;;;;;;;;;;16.89;58.78;100410.47;5063836;28;1040;-61
2022/08/31 12:15:11;;;;;;;;;;;;;;;16.94;58.82;100413.16;5066688;28;1913;-60
2022/08/31 12:17:37;;;;;;;;;;;;;;;16.93;59.21;100412.34;5056105;28;1025;-59
2022/08/31 12:20:11;;;;;;;;;;;;;;;16.97;59.28;100406.28;5073451;28;1226;-63
2022/08/31 12:25:43;;;;;;;;;;;;;;;17.09;60.38;100426.78;5055531;28;934;-62
2022/08/31 12:28:21;;;;;;;;;;;;;;;17.18;60.66;100418.78;5045151;28;986;-61
2022/08/31 12:30:47;;;;;;;;;;;;;;;17.26;61.30;100414.59;5040044;28;962;-61
2022/08/31 12:33:23;;;;;;;;;;;;;;;17.29;61.82;100414.00;5068537;28;1051;-61
2022/08/31 12:35:51;;;;;;;;;;;;;;;17.27;61.74;100403.31;5050845;28;1910;-62
2022/08/31 12:38:18;;;;;;;;;;;;;;;17.29;60.77;100397.50;5054148;28;1080;-62
2022/08/31 12:40:44;;;;;;;;;;;;;;;17.24;59.96;100400.31;5062182;28;1195;-61
2022/08/31 12:43:16;;;;;;;;;;;;;;;17.18;59.69;100402.28;5042587;28;1386;-60
2022/08/31 12:45:42;;;;;;;;;;;;;;;17.16;59.14;100400.94;5061436;28;1152;-64
2022/08/31 12:48:13;;;;;;;;;;;;;;;17.14;58.74;100412.22;5061931;28;1118;-62
2022/08/31 12:50:44;;;;;;;;;;;;;;;17.17;58.53;100406.13;5069483;28;1166;-61
2022/08/31 12:53:22;;;;;;;;;;;;;;;17.08;58.85;100410.59;5053435;28;1238;-63
2022/08/31 12:55:56;;;;;;;;;;;;;;;17.08;58.69;100403.19;5013766;28;1211503;-61
2022/08/31 12:58:25;;;;;;;;;;;;;;;17.08;58.27;100405.09;5068977;28;1132;-62
2022/08/31 13:00:50;;;;;;;;;;;;;;;17.07;58.37;100400.72;5056216;28;1357;-61
2022/08/31 13:03:23;;;;;;;;;;;;;;;17.08;58.03;100394.13;5063859;28;1005;-62
2022/08/31 13:06:17;;;;;;;;;;;;;;;17.06;58.42;100397.16;5051640;28;1504;-62
2022/08/31 13:08:45;;;;;;;;;;;;;;;17.05;58.25;100394.69;5040698;28;1322;-60
2022/08/31 13:11:12;;;;;;;;;;;;;;;17.02;58.30;100395.28;5065237;28;1076;-63
2022/08/31 13:13:37;;;;;;;;;;;;;;;17.02;58.08;100387.84;5058660;28;1879;-61
2022/08/31 13:16:03;;;;;;;;;;;;;;;16.98;58.22;100386.75;5064265;28;1032;-62
2022/08/31 13:18:29;;;;;;;;;;;;;;;16.95;58.08;100376.34;5069091;28;1140;-62
2022/08/31 13:21:04;;;;;;;;;;;;;;;16.97;57.73;100382.41;5074016;28;1087;-63